createdAt,value
2022-09-04T00:00:48.601Z,100012.72
2022-09-04T00:03:32.414Z,100016.22
2022-09-04T00:06:06.425Z,100018.91
2022-09-04T00:08:57.759Z,100030.41
2022-09-04T00:11:44.896Z,100028.66
2022-09-04T00:14:21.043Z,100034.84
2022-09-04T00:16:54.953Z,100033.97
2022-09-04T00:19:30.909Z,100034.00
2022-09-04T00:22:01.520Z,100038.41
2022-09-04T00:24:33.404Z,100031.38
2022-09-04T00:27:07.066Z,100034.91
2022-09-04T00:29:45.221Z,100033.16
2022-09-04T00:32:21.985Z,100035.81
2022-09-04T00:35:05.347Z,100042.00
2022-09-04T00:37:39.195Z,100042.00
2022-09-04T00:40:15.450Z,100040.25
2022-09-04T00:43:02.074Z,100044.66
2022-09-04T00:45:42.930Z,100042.91
2022-09-04T00:48:26.662Z,100048.22
2022-09-04T00:51:22.699Z,100049.13
2022-09-04T00:54:03.669Z,100051.75
2022-09-04T00:56:58.906Z,100052.66
2022-09-04T00:59:35.910Z,100056.16
2022-09-04T01:02:13.697Z,100048.22
2022-09-04T01:04:50.926Z,100052.66
2022-09-04T01:07:37.208Z,100054.41
2022-09-04T01:10:35.013Z,100054.41
2022-09-04T01:13:10.357Z,100054.44
2022-09-04T01:15:44.923Z,100058.84
2022-09-04T01:18:16.070Z,100062.38
2022-09-04T01:21:06.416Z,100067.66
2022-09-04T01:24:02.845Z,100065.00
2022-09-04T01:26:41.620Z,100066.81
2022-09-04T01:29:24.758Z,100066.81
2022-09-04T01:32:03.110Z,100067.69
2022-09-04T01:34:41.501Z,100072.97
2022-09-04T01:37:25.297Z,100074.75
2022-09-04T01:40:04.640Z,100076.50
2022-09-04T01:42:45.789Z,100072.97
2022-09-04T01:45:15.790Z,100073.88
2022-09-04T01:47:50.917Z,100075.66
2022-09-04T01:50:25.762Z,100072.13
2022-09-04T01:53:03.715Z,100083.56
2022-09-04T01:55:36.845Z,100084.47
2022-09-04T01:58:17.709Z,100080.94
2022-09-04T02:00:57.740Z,100087.13
2022-09-04T02:03:39.140Z,100087.16
2022-09-04T02:09:55.333Z,100099.47
2022-09-04T02:12:35.988Z,100099.47
2022-09-04T02:15:13.742Z,100105.66
2022-09-04T02:17:48.813Z,100101.25
2022-09-04T02:20:24.752Z,100101.25
2022-09-04T02:23:05.146Z,100106.56
2022-09-04T02:25:39.817Z,100110.97
2022-09-04T02:28:23.992Z,100110.06
2022-09-04T02:31:01.678Z,100113.59
2022-09-04T02:33:37.782Z,100115.38
2022-09-04T02:36:13.353Z,100117.13
2022-09-04T02:38:52.034Z,100119.75
2022-09-04T02:41:27.593Z,100124.16
2022-09-04T02:44:10.072Z,100123.28
2022-09-04T02:46:54.654Z,100123.28
2022-09-04T02:49:36.796Z,100129.44
2022-09-04T02:52:18.405Z,100124.16
2022-09-04T02:55:04.945Z,100125.03
2022-09-04T02:57:44.639Z,100129.44
2022-09-04T03:00:18.273Z,100126.81
2022-09-04T03:02:56.563Z,100126.78
2022-09-04T03:05:30.607Z,100131.19
2022-09-04T03:08:06.535Z,100129.44
2022-09-04T03:10:42.883Z,100129.44
2022-09-04T03:13:20.441Z,100125.91
2022-09-04T03:15:54.555Z,100129.41
2022-09-04T03:18:31.273Z,100129.41
2022-09-04T03:21:03.573Z,100133.84
2022-09-04T03:23:41.362Z,100126.78
2022-09-04T03:26:19.360Z,100125.91
2022-09-04T03:28:58.491Z,100128.53
2022-09-04T03:31:46.922Z,100131.19
2022-09-04T03:34:31.530Z,100127.66
2022-09-04T03:37:14.659Z,100127.66
2022-09-04T03:39:55.591Z,100131.19
2022-09-04T03:42:31.897Z,100133.81
2022-09-04T03:45:12.865Z,100132.91
2022-09-04T03:47:48.967Z,100135.53
2022-09-04T03:50:29.238Z,100139.97
2022-09-04T03:53:06.274Z,100142.63
2022-09-04T03:55:55.984Z,100143.47
2022-09-04T03:58:29.750Z,100154.94
2022-09-04T04:01:06.477Z,100155.78
2022-09-04T04:03:55.677Z,100154.91
2022-09-04T04:06:36.934Z,100157.53
2022-09-04T04:09:19.761Z,100154.03
2022-09-04T04:12:16.490Z,100149.63
2022-09-04T04:15:03.343Z,100156.66
2022-09-04T04:17:49.529Z,100157.53
2022-09-04T04:20:30.205Z,100155.78
2022-09-04T04:23:19.848Z,100160.19
2022-09-04T04:26:07.684Z,100162.81
2022-09-04T04:29:11.365Z,100163.69
2022-09-04T04:32:10.811Z,100169.84
2022-09-04T04:34:53.954Z,100169.84
2022-09-04T04:37:35.772Z,100176.00
2022-09-04T04:40:16.372Z,100179.50
2022-09-04T04:42:55.011Z,100183.03
2022-09-04T04:45:48.203Z,100177.75
2022-09-04T04:48:50.795Z,100185.66
2022-09-04T04:52:01.051Z,100182.13
2022-09-04T04:54:48.442Z,100190.94
2022-09-04T04:57:28.633Z,100192.69
2022-09-04T05:00:08.313Z,100194.44
2022-09-04T05:02:43.275Z,100203.25
2022-09-04T05:05:18.786Z,100205.00
2022-09-04T05:07:54.301Z,100214.69
2022-09-04T05:10:31.717Z,100215.56
2022-09-04T05:13:14.714Z,100217.31
2022-09-04T05:16:08.539Z,100221.72
2022-09-04T05:18:47.574Z,100220.84
2022-09-04T05:21:23.657Z,100227.84
2022-09-04T05:23:58.251Z,100224.34
2022-09-04T05:26:31.075Z,100230.50
2022-09-04T05:29:08.081Z,100238.44
2022-09-04T05:31:49.389Z,100248.13
2022-09-04T05:34:27.535Z,100250.75
2022-09-04T05:37:08.926Z,100256.91
2022-09-04T05:39:49.038Z,100259.59
2022-09-04T05:42:40.019Z,100264.88
2022-09-04T05:45:18.766Z,100266.66
2022-09-04T05:47:59.543Z,100268.41
2022-09-04T05:50:42.684Z,100264.88
2022-09-04T05:53:41.232Z,100274.56
2022-09-04T05:56:56.331Z,100282.53
2022-09-04T05:59:47.893Z,100284.31
2022-09-04T06:02:41.452Z,100286.97
2022-09-04T06:05:21.167Z,100287.84
2022-09-04T06:07:59.073Z,100288.72
2022-09-04T06:10:36.689Z,100293.16
2022-09-04T06:13:22.530Z,100293.19
2022-09-04T06:16:06.189Z,100299.38
2022-09-04T06:18:53.463Z,100294.09
2022-09-04T06:21:53.591Z,100296.78
2022-09-04T06:25:10.677Z,100298.53
2022-09-04T06:27:58.399Z,100307.38
2022-09-04T06:30:31.972Z,100303.91
2022-09-04T06:33:17.998Z,100307.47
2022-09-04T06:36:05.726Z,100311.00
2022-09-04T06:38:43.907Z,100307.50
2022-09-04T06:41:35.525Z,100311.94
2022-09-04T06:44:13.126Z,100311.94
2022-09-04T06:46:46.006Z,100302.28
2022-09-04T06:49:18.941Z,100305.81
2022-09-04T06:52:11.119Z,100309.38
2022-09-04T06:54:50.551Z,100309.38
2022-09-04T06:57:39.278Z,100314.69
2022-09-04T07:00:10.085Z,100320.00
2022-09-04T07:03:03.448Z,100315.59
2022-09-04T07:05:42.717Z,100320.03
2022-09-04T07:08:19.813Z,100317.38
2022-09-04T07:11:02.549Z,100324.44
2022-09-04T07:13:55.941Z,100330.63
2022-09-04T07:16:42.072Z,100332.41
2022-09-04T07:19:38.041Z,100332.44
2022-09-04T07:22:20.260Z,100323.63
2022-09-04T07:25:05.811Z,100328.94
2022-09-04T07:27:55.718Z,100323.66
2022-09-04T07:30:26.042Z,100330.72
2022-09-04T07:32:58.420Z,100331.59
2022-09-04T07:35:36.271Z,100343.97
2022-09-04T07:38:12.228Z,100339.56
2022-09-04T07:40:45.662Z,100344.84
2022-09-04T07:43:21.380Z,100352.78
2022-09-04T07:45:58.596Z,100355.44
2022-09-04T07:48:33.947Z,100358.97
2022-09-04T07:51:10.214Z,100358.97
2022-09-04T07:53:54.844Z,100362.50
2022-09-04T07:56:35.961Z,100364.25
2022-09-04T07:59:25.220Z,100370.41
2022-09-04T08:02:31.771Z,100368.66
2022-09-04T08:05:20.778Z,100368.66
2022-09-04T08:08:03.721Z,100366.84
2022-09-04T08:10:36.586Z,100370.38
2022-09-04T08:13:18.730Z,100376.53
2022-09-04T08:15:54.584Z,100378.28
2022-09-04T08:18:36.460Z,100372.09
2022-09-04T08:21:21.928Z,100376.47
2022-09-04T08:24:29.218Z,100377.31
2022-09-04T08:27:10.323Z,100383.50
2022-09-04T08:30:04.083Z,100383.47
2022-09-04T08:33:02.155Z,100390.53
2022-09-04T08:35:34.191Z,100378.06
2022-09-04T08:38:37.769Z,100380.72
2022-09-04T08:41:45.253Z,100378.06
2022-09-04T08:44:56.271Z,100385.97
2022-09-04T08:47:56.136Z,100388.59
2022-09-04T08:50:51.644Z,100383.19
2022-09-04T08:54:20.062Z,100397.31
2022-09-04T08:57:02.990Z,100393.72
2022-09-04T09:00:07.617Z,100407.84
2022-09-04T09:03:17.160Z,100402.47
2022-09-04T09:06:29.758Z,100409.47
2022-09-04T09:09:26.379Z,100412.09
2022-09-04T09:12:41.250Z,100400.47
2022-09-04T09:15:42.028Z,100400.47
2022-09-04T09:18:35.685Z,100406.56
2022-09-04T09:21:09.480Z,100405.59
2022-09-04T09:24:16.667Z,100419.69
2022-09-04T09:26:59.184Z,100414.34
2022-09-04T09:29:53.371Z,100409.81
2022-09-04T09:33:01.826Z,100410.59
2022-09-04T09:36:01.948Z,100412.28
2022-09-04T09:39:02.228Z,100406.88
2022-09-04T09:42:02.534Z,100409.41
2022-09-04T09:45:01.473Z,100395.16
2022-09-04T09:48:21.665Z,100400.38
2022-09-04T09:51:39.844Z,100404.72
2022-09-04T09:54:55.974Z,100402.75
2022-09-04T09:58:03.605Z,100402.66
2022-09-04T10:00:46.385Z,100398.13
2022-09-04T10:04:01.154Z,100393.53
2022-09-04T10:06:50.893Z,100404.09
2022-09-04T10:10:02.466Z,100396.81
2022-09-04T10:13:16.559Z,100403.81
2022-09-04T10:16:34.636Z,100398.28
2022-09-04T10:19:44.308Z,100390.16
2022-09-04T10:22:42.106Z,100394.44
2022-09-04T10:25:36.848Z,100392.50
2022-09-04T10:28:40.758Z,100391.47
2022-09-04T10:31:39.482Z,100401.06
2022-09-04T10:34:38.307Z,100407.97
2022-09-04T10:37:26.236Z,100397.09
2022-09-04T10:40:25.272Z,100402.31
2022-09-04T10:43:10.122Z,100394.06
2022-09-04T10:45:40.649Z,100407.25
2022-09-04T10:48:36.660Z,100397.19
2022-09-04T10:51:31.477Z,100397.94
2022-09-04T10:54:19.565Z,100395.91
2022-09-04T10:57:01.978Z,100393.03
2022-09-04T10:59:55.749Z,100397.28
2022-09-04T11:02:46.210Z,100390.78
2022-09-04T11:05:36.363Z,100395.84
2022-09-04T11:08:39.674Z,100398.28
2022-09-04T11:11:25.787Z,100388.19
2022-09-04T11:14:17.613Z,100394.91
2022-09-04T11:17:11.413Z,100392.81
2022-09-04T11:20:19.216Z,100391.63
2022-09-04T11:23:31.762Z,100392.94
2022-09-04T11:26:43.335Z,100392.53
2022-09-04T11:29:35.664Z,100386.75
2022-09-04T11:32:33.980Z,100383.75
2022-09-04T11:35:25.125Z,100391.41
2022-09-04T11:38:08.552Z,100387.56
2022-09-04T11:41:29.396Z,100390.69
2022-09-04T11:44:28.291Z,100390.41
2022-09-04T11:47:12.110Z,100386.00
2022-09-04T11:49:59.194Z,100388.84
2022-09-04T11:52:46.687Z,100392.47
2022-09-04T11:55:42.783Z,100393.28
2022-09-04T11:58:28.201Z,100394.19
2022-09-04T12:01:16.291Z,100395.13
2022-09-04T12:04:23.251Z,100397.13
2022-09-04T12:07:07.513Z,100389.09
2022-09-04T12:10:05.661Z,100387.16
2022-09-04T12:13:15.313Z,100395.88
2022-09-04T12:16:18.117Z,100391.19
2022-09-04T12:19:14.170Z,100401.88
2022-09-04T12:22:36.405Z,100399.28
2022-09-04T12:25:27.586Z,100400.28
2022-09-04T12:28:44.775Z,100394.91
2022-09-04T12:31:37.269Z,100396.34
2022-09-04T12:34:32.326Z,100400.34
2022-09-04T12:37:28.930Z,100394.75
2022-09-04T12:40:29.477Z,100394.75
2022-09-04T12:43:06.975Z,100391.91
2022-09-04T12:45:46.406Z,100390.63
2022-09-04T12:48:24.600Z,100389.25
2022-09-04T12:51:06.775Z,100386.91
2022-09-04T12:54:02.049Z,100391.81
2022-09-04T12:56:45.201Z,100387.78
2022-09-04T12:59:33.563Z,100390.72
2022-09-04T13:02:06.608Z,100390.84
2022-09-04T13:04:47.044Z,100389.31
2022-09-04T13:07:32.249Z,100388.91
2022-09-04T13:10:10.309Z,100387.16
2022-09-04T13:12:51.006Z,100394.47
2022-09-04T13:15:28.265Z,100400.03
2022-09-04T13:18:10.490Z,100399.16
2022-09-04T13:20:47.822Z,100402.59
2022-09-04T13:23:48.237Z,100401.47
2022-09-04T13:26:33.827Z,100397.44
2022-09-04T13:29:16.889Z,100398.59
2022-09-04T13:32:00.314Z,100400.72
2022-09-04T13:34:41.990Z,100404.09
2022-09-04T13:37:23.892Z,100405.97
2022-09-04T13:40:04.089Z,100404.22
2022-09-04T13:43:18.600Z,100400.84
2022-09-04T13:45:51.918Z,100408.28
2022-09-04T13:48:32.522Z,100404.91
2022-09-04T13:51:13.387Z,100412.28
2022-09-04T13:53:55.644Z,100407.03
2022-09-04T13:56:30.877Z,100411.59
2022-09-04T13:59:08.617Z,100417.25
2022-09-04T14:01:45.989Z,100416.53
2022-09-04T14:04:23.657Z,100411.13
2022-09-04T14:06:52.223Z,100412.88
2022-09-04T14:09:21.928Z,100418.25
2022-09-04T14:12:07.432Z,100416.44
2022-09-04T14:15:11.366Z,100417.44
2022-09-04T14:17:52.277Z,100415.69
2022-09-04T14:20:25.056Z,100409.16
2022-09-04T14:23:03.929Z,100407.84
2022-09-04T14:25:45.182Z,100412.81
2022-09-04T14:28:22.348Z,100403.22
2022-09-04T14:30:59.942Z,100403.34
2022-09-04T14:33:37.044Z,100406.97
2022-09-04T14:36:22.098Z,100406.50
2022-09-04T14:39:13.547Z,100400.97
2022-09-04T14:41:55.312Z,100399.22
2022-09-04T14:44:32.948Z,100407.66
2022-09-04T14:47:11.775Z,100408.78
2022-09-04T14:49:47.137Z,100411.38
2022-09-04T14:52:20.036Z,100404.22
2022-09-04T14:54:53.510Z,100404.22
2022-09-04T14:57:29.680Z,100406.91
2022-09-04T15:00:06.235Z,100398.81
2022-09-04T15:02:42.228Z,100400.63
2022-09-04T15:05:21.610Z,100399.22
2022-09-04T15:08:02.426Z,100404.84
2022-09-04T15:10:49.796Z,100405.13
2022-09-04T15:13:38.820Z,100406.31
2022-09-04T15:16:19.339Z,100399.91
2022-09-04T15:19:05.000Z,100397.59
2022-09-04T15:21:43.500Z,100389.72
2022-09-04T15:24:24.464Z,100393.63
2022-09-04T15:27:03.700Z,100394.72
2022-09-04T15:29:40.666Z,100396.75
2022-09-04T15:32:13.869Z,100398.81
2022-09-04T15:34:42.834Z,100391.41
2022-09-04T15:37:16.401Z,100386.66
2022-09-04T15:39:54.921Z,100387.16
2022-09-04T15:42:42.785Z,100382.16
2022-09-04T15:45:23.367Z,100392.59
2022-09-04T15:48:09.225Z,100388.72
2022-09-04T15:50:50.796Z,100388.63
2022-09-04T15:53:27.232Z,100388.31
2022-09-04T15:56:10.321Z,100396.03
2022-09-04T15:58:53.229Z,100389.56
2022-09-04T16:01:28.480Z,100391.13
2022-09-04T16:04:07.188Z,100393.00
2022-09-04T16:06:45.215Z,100383.22
2022-09-04T16:09:23.409Z,100391.50
2022-09-04T16:12:01.531Z,100388.16
2022-09-04T16:14:34.514Z,100389.38
2022-09-04T16:17:15.701Z,100388.88
2022-09-04T16:19:55.441Z,100386.50
2022-09-04T16:22:32.532Z,100383.34
2022-09-04T16:25:10.999Z,100393.66
2022-09-04T16:27:45.885Z,100392.22
2022-09-04T16:30:30.116Z,100396.06
2022-09-04T16:33:00.260Z,100399.06
2022-09-04T16:35:31.877Z,100390.16
2022-09-04T16:38:09.236Z,100385.81
2022-09-04T16:40:44.419Z,100389.69
2022-09-04T16:43:24.534Z,100387.22
2022-09-04T16:46:07.792Z,100392.75
2022-09-04T16:48:45.682Z,100397.44
2022-09-04T16:51:37.290Z,100392.19
2022-09-04T16:54:18.113Z,100395.94
2022-09-04T16:56:50.770Z,100394.31
2022-09-04T16:59:28.637Z,100394.59
2022-09-04T17:02:01.953Z,100393.91
2022-09-04T17:04:45.735Z,100386.13
2022-09-04T17:07:21.850Z,100390.06
2022-09-04T17:09:58.673Z,100395.75
2022-09-04T17:12:39.043Z,100392.56
2022-09-04T17:15:18.273Z,100389.31
2022-09-04T17:17:47.252Z,100398.72
2022-09-04T17:20:38.445Z,100388.31
2022-09-04T17:29:02.817Z,100389.44
2022-09-04T17:29:18.799Z,100383.56
2022-09-04T17:29:34.388Z,100391.00
2022-09-04T17:32:10.205Z,100391.50
2022-09-04T17:40:32.877Z,100390.09
2022-09-04T17:40:32.948Z,100397.66
2022-09-04T17:41:36.711Z,100394.47
2022-09-04T17:44:19.656Z,100391.41
2022-09-04T17:46:56.302Z,100391.97
2022-09-04T17:49:34.734Z,100383.41
2022-09-04T17:52:07.156Z,100393.59
2022-09-04T17:54:42.494Z,100394.91
2022-09-04T17:57:28.820Z,100395.28
2022-09-04T18:00:03.961Z,100388.56
2022-09-04T18:02:43.266Z,100391.66
2022-09-04T18:05:20.784Z,100398.25
2022-09-04T18:08:07.594Z,100402.16
2022-09-04T18:10:54.156Z,100407.88
2022-09-04T18:13:37.549Z,100399.28
2022-09-04T18:16:16.054Z,100412.13
2022-09-04T18:18:49.001Z,100399.94
2022-09-04T18:21:23.055Z,100411.81
2022-09-04T18:23:59.350Z,100421.06
2022-09-04T18:26:41.008Z,100431.16
2022-09-04T18:31:48.290Z,100432.16
2022-09-04T18:37:08.165Z,100439.50
2022-09-04T18:37:20.408Z,100443.28
2022-09-04T18:38:20.390Z,100440.91
2022-09-04T18:44:47.961Z,100445.59
2022-09-04T18:50:24.307Z,100448.50
2022-09-04T18:50:45.517Z,100456.13
2022-09-04T18:50:47.147Z,100448.75
2022-09-04T18:52:19.809Z,100459.88
2022-09-04T18:54:52.201Z,100461.88
2022-09-04T18:57:28.060Z,100460.34
2022-09-04T19:00:08.078Z,100460.56
2022-09-04T19:02:50.834Z,100471.44
2022-09-04T19:05:32.919Z,100479.66
2022-09-04T19:08:23.042Z,100474.56
2022-09-04T19:10:55.524Z,100484.53
2022-09-04T19:13:29.887Z,100484.69
2022-09-04T19:16:04.711Z,100479.53
2022-09-04T19:18:49.594Z,100478.84
2022-09-04T19:21:30.148Z,100479.00
2022-09-04T19:24:06.162Z,100480.03
2022-09-04T19:26:39.675Z,100480.22
2022-09-04T19:29:16.772Z,100483.06
2022-09-04T19:31:58.804Z,100484.06
2022-09-04T19:34:36.677Z,100483.34
2022-09-04T19:37:44.794Z,100481.75
2022-09-04T19:45:54.954Z,100480.19
2022-09-04T19:46:04.236Z,100488.34
2022-09-04T19:46:26.545Z,100492.03
2022-09-04T19:49:50.917Z,100484.16
2022-09-04T19:53:24.002Z,100490.47
2022-09-04T19:55:00.025Z,100486.13
2022-09-04T19:57:45.046Z,100482.66
2022-09-04T20:00:43.415Z,100491.59
2022-09-04T20:03:30.575Z,100489.94
2022-09-04T20:06:21.421Z,100491.81
2022-09-04T20:08:59.291Z,100500.78
2022-09-04T20:11:36.010Z,100492.88
2022-09-04T20:14:22.599Z,100499.19
2022-09-04T20:17:08.335Z,100498.38
2022-09-04T20:19:42.629Z,100505.59
2022-09-04T20:22:17.760Z,100501.22
2022-09-04T20:25:01.260Z,100511.97
2022-09-04T20:27:37.110Z,100505.81
2022-09-04T20:30:12.220Z,100509.44
2022-09-04T20:32:49.517Z,100498.84
2022-09-04T20:35:33.820Z,100506.91
2022-09-04T20:38:23.523Z,100506.09
2022-09-04T20:40:56.851Z,100505.22
2022-09-04T20:43:32.126Z,100511.50
2022-09-04T20:52:14.023Z,100511.59
2022-09-04T20:52:58.242Z,100513.41
2022-09-04T20:52:59.848Z,100514.34
2022-09-04T20:55:25.035Z,100510.84
2022-09-04T21:03:14.626Z,100513.53
2022-09-04T21:03:21.101Z,100515.38
2022-09-04T21:04:10.876Z,100520.75
2022-09-04T21:06:47.198Z,100517.25
2022-09-04T21:09:29.595Z,100516.38
2022-09-04T21:12:13.075Z,100514.66
2022-09-04T21:14:46.467Z,100513.81
2022-09-04T21:17:35.840Z,100521.84
2022-09-04T21:20:25.110Z,100516.53
2022-09-04T21:23:13.796Z,100512.16
2022-09-04T21:25:51.453Z,100521.03
2022-09-04T21:28:40.370Z,100519.25
2022-09-04T21:31:20.683Z,100517.53
2022-09-04T21:34:08.022Z,100521.09
2022-09-04T21:36:44.065Z,100522.03
2022-09-04T21:39:33.956Z,100522.94
2022-09-04T21:42:32.205Z,100515.88
2022-09-04T21:45:23.433Z,100525.66
2022-09-04T21:48:23.530Z,100527.47
2022-09-04T21:51:21.299Z,100531.91
2022-09-04T21:56:21.469Z,100528.38
2022-09-04T22:02:27.794Z,100533.72
2022-09-04T22:02:48.198Z,100532.88
2022-09-04T22:03:33.877Z,100534.63
2022-09-04T22:06:11.980Z,100531.13
2022-09-04T22:13:30.992Z,100523.19
2022-09-04T22:13:45.998Z,100526.72
2022-09-04T22:14:57.329Z,100537.38
2022-09-04T22:17:36.926Z,100532.94
2022-09-04T22:20:22.003Z,100527.66
2022-09-04T22:23:24.701Z,100527.66
2022-09-04T22:26:17.107Z,100532.09
2022-09-04T22:29:16.043Z,100525.91
2022-09-04T22:32:20.460Z,100527.69
2022-09-04T22:35:22.272Z,100532.06
2022-09-04T22:38:19.893Z,100532.09
2022-09-04T22:40:58.805Z,100528.56
2022-09-04T22:43:29.513Z,100537.41
2022-09-04T22:46:56.898Z,100539.19
2022-09-04T22:49:49.176Z,100539.22
2022-09-04T22:52:35.722Z,100542.72
2022-09-04T22:55:39.600Z,100538.31
2022-09-04T22:58:24.151Z,100533.03
2022-09-04T23:01:35.434Z,100538.31
2022-09-04T23:04:20.105Z,100535.69
2022-09-04T23:12:28.564Z,100528.59
2022-09-04T23:13:53.692Z,100532.16
2022-09-04T23:14:02.408Z,100539.22
2022-09-04T23:16:44.340Z,100532.16
2022-09-04T23:25:44.184Z,100533.03
2022-09-04T23:26:50.539Z,100537.47
2022-09-04T23:26:51.090Z,100529.50
2022-09-04T23:29:21.309Z,100535.69
2022-09-04T23:32:10.067Z,100528.63
2022-09-04T23:35:14.430Z,100532.16
2022-09-04T23:38:01.219Z,100530.41
2022-09-04T23:40:53.469Z,100532.19
2022-09-04T23:43:50.008Z,100540.13
2022-09-04T23:46:41.423Z,100533.94
2022-09-04T23:49:44.555Z,100527.75
2022-09-04T23:52:22.038Z,100525.09
2022-09-04T23:55:28.846Z,100526.88
2022-09-04T23:58:51.946Z,100533.97
